Time;durP1;ratioP1;P1;durP2;ratioP2;P2;SDS_P1;SDS_P2;PMS_P1;PMS_P2;Temp;Humidity;BMP_temperature;BMP_pressure;BME280_temperature;BME280_humidity;BME280_pressure;Samples;Min_cycle;Max_cycle;Signal;HPM_P1;HPM_P2
2022/10/21 00:00:51;;;;;;;3.23;1.10;;;;;;;13.95;58.97;100007.13;5115979;28;20239;-89
2022/10/21 00:03:19;;;;;;;3.87;1.80;;;;;;;13.95;58.94;100000.06;5097620;28;20174;-89
2022/10/21 00:05:47;;;;;;;3.93;1.70;;;;;;;13.98;58.80;99999.91;5116053;28;20257;-89
2022/10/21 00:08:14;;;;;;;5.43;1.50;;;;;;;13.99;58.91;99998.97;5097581;28;20182;-89
2022/10/21 00:10:41;;;;;;;2.43;1.33;;;;;;;13.99;58.50;100006.88;5096828;28;20178;-89
2022/10/21 00:13:08;;;;;;;3.13;1.40;;;;;;;13.99;58.11;99998.97;5097495;28;20258;-88
2022/10/21 00:15:33;;;;;;;4.13;1.60;;;;;;;13.95;58.70;99997.44;5115574;28;20196;-89
2022/10/21 00:18:00;;;;;;;4.47;2.00;;;;;;;13.90;58.31;99998.59;5115368;28;20235;-89
2022/10/21 00:20:27;;;;;;;4.37;1.90;;;;;;;13.82;58.22;100001.66;5097343;28;20170;-89
2022/10/21 00:22:54;;;;;;;6.70;2.00;;;;;;;13.78;58.66;100000.13;5115238;28;20750;-89
2022/10/21 00:25:19;;;;;;;3.33;1.57;;;;;;;13.76;58.51;100001.94;5115167;28;20175;-89
2022/10/21 00:27:44;;;;;;;3.60;1.53;;;;;;;13.75;58.37;100002.91;5097182;28;20186;-89
2022/10/21 00:30:12;;;;;;;3.77;1.70;;;;;;;13.65;58.61;99993.78;5097117;28;20256;-89
2022/10/21 00:32:37;;;;;;;3.50;1.43;;;;;;;13.61;58.97;100000.13;5097131;28;20189;-90
2022/10/21 00:35:04;;;;;;;3.43;1.83;;;;;;;13.54;58.91;99998.72;5115444;28;20207;-89
2022/10/21 00:37:32;;;;;;;5.13;2.33;;;;;;;13.50;58.30;99997.16;5114914;28;20239;-89
2022/10/21 00:39:58;;;;;;;4.77;1.87;;;;;;;13.42;58.50;99994.06;5114897;28;20170;-89
2022/10/21 00:42:31;;;;;;;5.60;2.03;;;;;;;13.39;57.52;99999.53;5097135;28;20515;-89
2022/10/21 00:45:18;;;;;;;6.10;2.53;;;;;;;13.31;57.03;99988.50;5114801;28;20167;-89
2022/10/21 00:47:50;;;;;;;11.93;2.37;;;;;;;13.30;56.75;99992.91;5115316;28;20513;-88
2022/10/21 00:50:38;;;;;;;4.70;2.23;;;;;;;13.24;56.59;99992.34;5097385;28;20200;-89
2022/10/21 00:53:06;;;;;;;3.67;1.70;;;;;;;13.17;56.95;99989.19;5114946;28;20169;-89
2022/10/21 00:55:35;;;;;;;8.60;3.27;;;;;;;13.23;56.85;99980.97;5096568;28;20199;-89
2022/10/21 00:58:02;;;;;;;6.53;2.63;;;;;;;13.21;56.24;99981.97;5114807;28;20206;-89
2022/10/21 01:00:28;;;;;;;6.40;2.47;;;;;;;13.17;55.88;99978.66;5096498;28;20276;-89
2022/10/21 01:02:54;;;;;;;5.93;2.67;;;;;;;13.04;56.08;99985.44;5096476;28;20633;-89
2022/10/21 01:05:23;;;;;;;9.83;3.40;;;;;;;12.97;56.37;99991.91;5096407;28;20176;-89
2022/10/21 01:07:50;;;;;;;14.77;2.63;;;;;;;13.05;56.07;99983.66;5114859;28;20178;-89
2022/10/21 01:10:16;;;;;;;6.37;2.03;;;;;;;13.02;55.83;99981.16;5114838;28;20173;-89
2022/10/21 01:13:06;;;;;;;7.47;2.70;;;;;;;12.90;55.84;99977.34;5096284;28;20248;-89
2022/10/21 01:15:41;;;;;;;3.97;1.90;;;;;;;12.87;55.82;99975.72;5097139;28;20345;-89
2022/10/21 01:18:17;;;;;;;6.60;2.50;;;;;;;12.88;55.47;99979.19;5114173;28;20172;-89
2022/10/21 01:21:01;;;;;;;5.90;2.83;;;;;;;12.72;56.01;99979.09;5096017;28;20165;-89
2022/10/21 01:23:35;;;;;;;4.53;1.73;;;;;;;12.68;56.13;99974.88;5095700;28;20192;-89
2022/10/21 01:26:10;;;;;;;5.10;2.13;;;;;;;12.69;56.23;99988.91;5096626;28;20165;-89
2022/10/21 01:28:54;;;;;;;10.70;2.57;;;;;;;12.60;56.53;99979.69;5095971;28;20179;-89
2022/10/21 01:31:29;;;;;;;3.70;2.30;;;;;;;12.49;56.62;99984.59;5114243;28;20316;-89
2022/10/21 01:34:18;;;;;;;6.17;2.70;;;;;;;12.36;56.29;99988.72;5095924;28;20156;-90
2022/10/21 01:36:57;;;;;;;12.07;3.07;;;;;;;12.29;56.55;99993.38;5114196;28;20158;-89
2022/10/21 01:39:42;;;;;;;6.00;2.37;;;;;;;12.25;56.58;99988.34;5096758;28;20164;-89
2022/10/21 01:42:13;;;;;;;6.77;3.37;;;;;;;12.27;56.34;99989.13;5114069;28;20575;-89
2022/10/21 01:45:13;;;;;;;8.37;2.67;;;;;;;12.16;56.06;99989.63;5095998;28;20191;-89
2022/10/21 01:47:45;;;;;;;7.83;3.07;;;;;;;12.09;56.26;99997.84;5095715;28;20230;-89
2022/10/21 01:50:19;;;;;;;6.60;2.77;;;;;;;12.13;56.01;100004.69;5096546;28;20274;-89
2022/10/21 01:52:50;;;;;;;7.23;2.90;;;;;;;12.20;55.23;100001.72;5113893;28;20210;-89
2022/10/21 01:55:19;;;;;;;6.97;2.93;;;;;;;12.06;55.79;99997.97;5095589;28;20191;-89
2022/10/21 01:57:50;;;;;;;7.43;3.37;;;;;;;11.93;55.97;100002.94;5095585;28;20182;-89
2022/10/21 02:00:16;;;;;;;8.47;2.63;;;;;;;11.89;56.24;100005.78;5114139;28;20156;-89
2022/10/21 02:02:45;;;;;;;3.83;2.10;;;;;;;11.88;55.89;100004.06;5095570;28;20187;-89
2022/10/21 02:05:26;;;;;;;5.60;2.30;;;;;;;11.86;55.80;100019.03;5095498;28;20180;-89
2022/10/21 02:07:54;;;;;;;7.60;2.83;;;;;;;11.86;55.90;100012.00;5114069;28;20153;-89
2022/10/21 02:10:20;;;;;;;6.67;2.67;;;;;;;11.81;56.04;100014.00;5095547;28;20526;-89
2022/10/21 02:12:49;;;;;;;5.10;2.43;;;;;;;11.79;55.83;100014.97;5113400;28;20246;-89
2022/10/21 02:15:15;;;;;;;8.50;2.67;;;;;;;11.78;55.74;100015.88;5113883;28;20187;-89
2022/10/21 02:17:48;;;;;;;6.97;2.43;;;;;;;11.64;55.98;100022.56;5095442;28;20176;-89
2022/10/21 02:20:17;;;;;;;4.63;2.03;;;;;;;11.57;55.98;100026.38;5096273;28;20203;-89
2022/10/21 02:22:45;;;;;;;5.60;2.60;;;;;;;11.45;56.38;100029.50;5113336;28;20178;-89
2022/10/21 02:25:21;;;;;;;6.00;2.50;;;;;;;11.36;56.61;100027.28;5113304;28;20232;-89
2022/10/21 02:27:48;;;;;;;5.50;2.50;;;;;;;11.42;56.77;100027.03;5113840;28;20566;-89
2022/10/21 02:30:14;;;;;;;4.80;1.87;;;;;;;11.46;56.60;100028.59;5095332;28;20270;-89
2022/10/21 02:33:16;;;;;;;10.10;2.40;;;;;;;11.35;56.85;100025.56;5095613;28;20233;-89
2022/10/21 02:35:53;;;;;;;4.83;2.17;;;;;;;11.30;56.87;100027.50;5099251;28;20190;-89
2022/10/21 02:38:31;;;;;;;6.20;2.37;;;;;;;11.29;56.66;100033.69;5099368;28;20530;-89
2022/10/21 02:41:12;;;;;;;3.43;1.60;;;;;;;11.25;56.78;100039.09;5117500;28;20220;-89
2022/10/21 02:43:49;;;;;;;8.90;2.60;;;;;;;11.19;57.09;100037.59;5099193;28;20194;-89
2022/10/21 02:46:16;;;;;;;6.30;2.30;;;;;;;11.15;57.41;100043.88;5099209;28;20163;-89
2022/10/21 02:48:45;;;;;;;6.13;2.00;;;;;;;11.19;57.08;100036.75;5099025;28;20514;-89
2022/10/21 02:51:13;;;;;;;5.40;2.70;;;;;;;11.19;57.15;100042.84;5098907;28;20642;-89
2022/10/21 02:53:40;;;;;;;3.57;1.67;;;;;;;11.10;57.23;100041.47;5098930;28;20217;-89
2022/10/21 02:56:08;;;;;;;5.03;2.80;;;;;;;11.01;57.53;100051.44;5098874;28;20684;-89
2022/10/21 02:58:33;;;;;;;4.73;2.13;;;;;;;10.96;57.77;100042.91;5098901;28;20617;-89
2022/10/21 03:01:00;;;;;;;5.80;2.37;;;;;;;10.92;58.05;100047.44;5099185;28;20172;-89
2022/10/21 03:03:28;;;;;;;8.80;2.73;;;;;;;10.97;58.13;100045.50;5098778;28;20549;-89
2022/10/21 03:05:56;;;;;;;8.57;2.87;;;;;;;10.94;57.95;100044.75;5116685;28;20248;-89
2022/10/21 03:08:22;;;;;;;3.77;2.20;;;;;;;10.97;57.58;100049.88;5099000;28;20172;-89
2022/10/21 03:10:49;;;;;;;5.70;2.30;;;;;;;11.03;57.26;100045.22;5098701;28;20250;-89
2022/10/21 03:13:16;;;;;;;6.07;2.60;;;;;;;11.03;57.32;100060.13;5116589;28;20637;-89
2022/10/21 03:15:44;;;;;;;5.57;2.20;;;;;;;10.90;58.25;100058.91;5116477;28;20192;-89
2022/10/21 03:18:10;;;;;;;4.10;1.80;;;;;;;10.84;58.71;100054.75;5098571;28;20186;-89
2022/10/21 03:20:37;;;;;;;4.27;1.67;;;;;;;10.81;58.95;100069.75;5116791;28;20175;-89
2022/10/21 03:23:02;;;;;;;5.57;2.50;;;;;;;10.75;59.19;100062.09;5098465;28;20232;-89
2022/10/21 03:25:28;;;;;;;4.33;2.17;;;;;;;10.74;59.40;100068.28;5098442;28;20168;-89
2022/10/21 03:27:53;;;;;;;4.97;1.73;;;;;;;10.73;59.03;100070.03;5099187;28;20176;-90
2022/10/21 03:30:20;;;;;;;3.87;1.97;;;;;;;10.69;58.97;100067.59;5116787;28;20168;-89
2022/10/21 03:32:45;;;;;;;7.37;1.93;;;;;;;10.71;59.45;100064.00;5098598;28;20260;-89
2022/10/21 03:35:12;;;;;;;4.20;1.90;;;;;;;10.64;59.50;100059.91;5098183;28;20284;-89
2022/10/21 03:37:38;;;;;;;11.70;2.80;;;;;;;10.64;59.14;100073.00;5098142;28;20199;-89
2022/10/21 03:40:05;;;;;;;3.43;1.47;;;;;;;10.65;58.97;100071.25;5098152;28;20707;-89
2022/10/21 03:42:30;;;;;;;4.60;2.43;;;;;;;10.64;58.34;100072.16;5115964;28;20596;-89
2022/10/21 03:44:55;;;;;;;6.00;3.30;;;;;;;10.73;58.25;100066.56;5115009;28;20660;-88
2022/10/21 03:47:21;;;;;;;4.20;1.90;;;;;;;10.78;57.99;100068.09;5116229;28;20172;-89
2022/10/21 03:49:46;;;;;;;3.73;1.93;;;;;;;10.74;57.63;100069.16;5097767;28;20539;-88
2022/10/21 03:52:13;;;;;;;4.77;1.97;;;;;;;10.66;57.94;100073.81;5097950;28;20186;-89
2022/10/21 03:54:38;;;;;;;4.63;2.40;;;;;;;10.70;58.01;100064.06;5098054;28;20235;-89
2022/10/21 03:57:05;;;;;;;7.37;2.33;;;;;;;10.73;58.14;100069.19;5116518;27;20186;-89
2022/10/21 03:59:32;;;;;;;5.43;2.37;;;;;;;10.74;58.21;100068.28;5136271;27;20171;-90
2022/10/21 04:01:58;;;;;;;8.00;4.00;;;;;;;10.78;58.12;100069.84;5136726;27;20692;-90
2022/10/21 04:04:25;;;;;;;7.10;2.60;;;;;;;10.75;59.26;100073.44;5117967;27;20163;-90
2022/10/21 04:06:52;;;;;;;12.67;2.63;;;;;;;10.78;60.00;100078.59;5118011;27;20170;-90
2022/10/21 04:09:19;;;;;;;6.70;3.27;;;;;;;10.75;60.61;100077.84;5117957;27;20175;-90
2022/10/21 04:11:45;;;;;;;5.70;2.90;;;;;;;10.62;61.37;100080.06;5118262;27;20178;-90
2022/10/21 04:14:10;;;;;;;5.23;2.57;;;;;;;10.61;61.30;100082.78;5117852;27;20171;-90
2022/10/21 04:16:37;;;;;;;5.63;2.53;;;;;;;10.73;61.46;100071.81;5118183;27;20511;-89
2022/10/21 04:19:04;;;;;;;5.83;3.27;;;;;;;10.81;60.63;100069.75;5118560;27;20262;-90
2022/10/21 04:21:30;;;;;;;4.73;2.67;;;;;;;10.86;60.54;100070.41;5136096;27;20613;-89
2022/10/21 04:23:57;;;;;;;4.90;2.33;;;;;;;10.95;60.47;100072.69;5117461;27;20630;-89
2022/10/21 04:26:24;;;;;;;4.57;2.70;;;;;;;11.00;60.16;100066.38;5117614;27;20171;-90
2022/10/21 04:28:50;;;;;;;13.20;2.97;;;;;;;10.96;60.48;100071.75;5136314;27;20163;-90
2022/10/21 04:31:17;;;;;;;5.73;2.30;;;;;;;10.99;60.80;100079.53;5117463;27;20186;-90
2022/10/21 04:33:43;;;;;;;5.53;2.90;;;;;;;11.00;60.86;100076.00;5134702;27;20171;-90
2022/10/21 04:36:10;;;;;;;7.43;3.40;;;;;;;11.05;60.93;100072.28;5097211;28;20199;-89
2022/10/21 04:38:36;;;;;;;4.17;2.53;;;;;;;11.10;60.89;100079.97;5096993;28;20174;-90
2022/10/21 04:41:03;;;;;;;5.57;2.57;;;;;;;11.07;60.69;100077.44;5115474;28;20189;-90
2022/10/21 04:43:30;;;;;;;5.80;2.70;;;;;;;11.06;60.47;100080.97;5115184;28;20183;-89
2022/10/21 04:45:57;;;;;;;5.83;3.07;;;;;;;10.97;61.17;100083.97;5096924;28;20225;-90
2022/10/21 04:48:24;;;;;;;6.67;2.70;;;;;;;11.01;61.10;100077.69;5097117;28;20175;-90
2022/10/21 04:50:53;;;;;;;5.70;2.77;;;;;;;11.04;60.74;100080.19;5096649;28;20198;-90
2022/10/21 04:53:21;;;;;;;12.63;4.23;;;;;;;11.04;60.75;100090.69;5134301;27;20175;-90
2022/10/21 04:55:52;;;;;;;5.57;3.03;;;;;;;11.10;60.77;100085.22;5116868;27;20549;-90
2022/10/21 04:58:20;;;;;;;4.53;2.23;;;;;;;11.18;60.21;100084.91;5116937;27;20249;-90
2022/10/21 05:00:48;;;;;;;6.37;3.13;;;;;;;11.27;59.69;100074.88;5135267;27;20254;-90
2022/10/21 05:03:15;;;;;;;13.23;2.60;;;;;;;11.41;59.41;100079.56;5117246;27;20632;-90
2022/10/21 05:05:42;;;;;;;6.17;2.90;;;;;;;11.44;59.20;100077.69;5117182;27;20604;-90
2022/10/21 05:08:09;;;;;;;9.03;2.43;;;;;;;11.45;59.41;100075.91;5116789;27;20174;-88
2022/10/21 05:10:35;;;;;;;5.07;2.30;;;;;;;11.43;59.28;100078.59;5117102;27;20242;-89
2022/10/21 05:13:01;;;;;;;4.57;2.40;;;;;;;11.45;59.75;100082.00;5134899;27;20178;-90
2022/10/21 05:15:27;;;;;;;5.87;3.07;;;;;;;11.45;60.06;100084.63;5116898;27;20194;-90
2022/10/21 05:17:53;;;;;;;5.97;2.90;;;;;;;11.53;60.22;100086.97;5134748;27;20167;-89
2022/10/21 05:20:20;;;;;;;8.90;4.13;;;;;;;11.56;59.59;100087.66;5134674;27;20522;-89
2022/10/21 05:22:48;;;;;;;9.60;4.10;;;;;;;11.63;59.41;100088.28;5117568;27;20267;-90
2022/10/21 05:25:15;;;;;;;7.40;3.37;;;;;;;11.75;59.68;100089.56;5116486;27;20182;-90
2022/10/21 05:27:41;;;;;;;9.60;3.40;;;;;;;11.84;60.02;100094.44;5132505;27;20179;-90
2022/10/21 05:30:08;;;;;;;7.27;2.83;;;;;;;11.93;60.22;100096.66;5118931;27;20190;-91
2022/10/21 05:32:35;;;;;;;6.17;3.20;;;;;;;12.13;60.27;100097.50;5107553;27;20539;-91
2022/10/21 05:35:02;;;;;;;9.03;3.50;;;;;;;12.28;60.03;100099.47;5117786;27;20199;-90
2022/10/21 05:37:28;;;;;;;12.07;4.73;;;;;;;12.33;60.00;100101.91;5096258;28;20171;-91
2022/10/21 05:39:54;;;;;;;13.93;3.60;;;;;;;12.46;58.99;100104.84;5114376;28;20176;-90
2022/10/21 05:42:20;;;;;;;7.97;3.40;;;;;;;12.54;58.35;100106.19;5102494;27;20181;-91
2022/10/21 05:44:47;;;;;;;7.57;3.47;;;;;;;12.62;57.37;100111.97;5133890;27;20171;-91
2022/10/21 05:47:14;;;;;;;5.73;3.27;;;;;;;12.74;56.73;100107.91;5130563;27;20201;-90
2022/10/21 05:49:41;;;;;;;20.47;11.33;;;;;;;12.79;56.27;100119.94;5103323;27;20262;-91
2022/10/21 05:52:06;;;;;;;14.60;5.97;;;;;;;12.84;56.59;100125.84;5104438;27;20215;-91
2022/10/21 05:54:33;;;;;;;11.60;5.10;;;;;;;12.93;56.65;100127.19;5117144;27;20711;-91
2022/10/21 05:56:58;;;;;;;12.83;5.23;;;;;;;13.15;56.88;100116.56;5134116;27;20261;-91
2022/10/21 05:59:25;;;;;;;12.60;6.00;;;;;;;13.42;56.50;100128.38;5134402;27;20254;-91
2022/10/21 06:01:52;;;;;;;13.33;5.07;;;;;;;13.71;56.15;100117.28;5134308;27;20172;-92
2022/10/21 06:04:17;;;;;;;10.73;4.40;;;;;;;14.21;54.93;100119.97;5134093;27;20163;-92
2022/10/21 06:06:43;;;;;;;22.10;7.67;;;;;;;15.26;52.75;100113.38;5116046;28;20182;-91
2022/10/21 06:09:09;;;;;;;17.83;6.63;;;;;;;16.80;48.55;100113.91;5115442;28;20268;-91
2022/10/21 06:11:34;;;;;;;18.43;5.73;;;;;;;18.00;45.52;100111.38;5116511;28;20167;-91
2022/10/21 06:14:01;;;;;;;10.63;4.53;;;;;;;18.52;43.59;100106.88;5133991;28;20170;-91
2022/10/21 06:16:27;;;;;;;8.83;4.50;;;;;;;18.70;42.50;100113.56;5115887;28;20218;-92
2022/10/21 06:18:54;;;;;;;18.70;4.77;;;;;;;18.91;42.11;100108.53;5115878;28;20186;-92
2022/10/21 06:21:21;;;;;;;12.40;4.93;;;;;;;18.96;41.73;100107.25;5133532;28;20173;-92
2022/10/21 06:23:47;;;;;;;8.70;4.00;;;;;;;18.79;42.50;100110.25;5115777;28;20188;-92
2022/10/21 06:26:15;;;;;;;18.57;5.03;;;;;;;18.96;42.24;100109.91;5134126;28;20173;-92
2022/10/21 06:28:43;;;;;;;8.17;3.93;;;;;;;19.07;42.24;100102.97;5133557;28;20186;-90
2022/10/21 06:31:20;;;;;;;8.93;3.93;;;;;;;19.37;41.97;100106.94;5133255;28;20170;-91
2022/10/21 06:33:47;;;;;;;11.57;4.20;;;;;;;19.70;41.30;100100.09;5104957;28;20214;-92
2022/10/21 06:36:14;;;;;;;12.27;2.80;;;;;;;19.70;41.37;100106.25;5122359;28;20187;-92
2022/10/21 06:38:42;;;;;;;6.97;3.00;;;;;;;19.26;42.31;100103.34;5115192;28;20171;-92
2022/10/21 06:41:10;;;;;;;7.63;3.20;;;;;;;19.05;43.47;100104.88;5133699;28;20175;-92
2022/10/21 06:43:37;;;;;;;8.90;2.67;;;;;;;19.57;42.53;100103.63;5102652;28;20191;-92
2022/10/21 06:46:07;;;;;;;8.13;3.73;;;;;;;20.08;41.46;100096.22;5095148;28;20203;-92
2022/10/21 06:48:34;;;;;;;8.07;3.70;;;;;;;20.57;40.48;100106.59;5119634;28;20163;-92
2022/10/21 06:51:03;;;;;;;7.13;2.20;;;;;;;20.90;40.14;100096.94;5133431;27;20222;-92
2022/10/21 06:53:30;;;;;;;6.70;2.30;;;;;;;21.45;39.08;100094.19;5109108;28;20179;-92
2022/10/21 06:56:06;;;;;;;5.77;2.63;;;;;;;21.84;38.46;100101.56;5110699;28;20242;-91
2022/10/21 06:58:35;;;;;;;9.97;2.90;;;;;;;22.16;38.13;100104.22;5127710;28;20160;-92
2022/10/21 07:01:24;;;;;;;3.23;1.40;;;;;;;22.60;37.99;100101.25;5103206;28;20190;-91
2022/10/21 07:03:51;;;;;;;5.50;1.70;;;;;;;22.38;37.77;100106.72;5112946;28;20180;-91
2022/10/21 07:06:17;;;;;;;9.00;1.97;;;;;;;22.25;37.83;100100.75;5095210;28;20608;-91
2022/10/21 07:08:44;;;;;;;3.23;1.57;;;;;;;21.44;39.18;100104.00;5115212;28;20567;-93
2022/10/21 07:11:13;;;;;;;5.83;1.40;;;;;;;20.86;41.09;100112.31;5130069;28;20227;-92
2022/10/21 07:13:40;;;;;;;4.50;1.43;;;;;;;21.02;40.96;100109.25;5104946;28;20194;-92
2022/10/21 07:16:34;;;;;;;3.23;1.40;;;;;;;20.91;40.68;100115.44;5112832;28;20209;-92
2022/10/21 07:18:59;;;;;;;7.03;2.20;;;;;;;20.55;41.53;100113.88;5092302;28;20214;-93
2022/10/21 07:21:28;;;;;;;3.83;1.33;;;;;;;20.60;41.87;100105.50;5124491;27;20220;-93
2022/10/21 07:23:57;;;;;;;3.80;1.40;;;;;;;20.62;42.09;100112.41;5134853;27;20260;-92
2022/10/21 07:26:23;;;;;;;3.53;1.60;;;;;;;20.61;41.53;100107.22;5119261;27;20538;-93
2022/10/21 07:28:51;;;;;;;4.13;1.40;;;;;;;20.66;41.49;100102.38;5119658;27;20271;-93
2022/10/21 07:31:20;;;;;;;6.27;1.70;;;;;;;20.60;41.11;100100.19;5118893;27;20166;-92
2022/10/21 07:33:47;;;;;;;4.23;1.40;;;;;;;20.56;42.25;100098.75;5130138;27;20171;-92
2022/10/21 07:36:25;;;;;;;4.50;1.30;;;;;;;20.58;41.63;100105.66;5098082;28;20206;-92
2022/10/21 07:38:54;;;;;;;3.63;1.00;;;;;;;20.12;41.27;100108.34;5116622;28;20167;-93
2022/10/21 07:41:28;;;;;;;13.73;1.70;;;;;;;20.02;42.29;100103.84;5116396;28;20279;-92
2022/10/21 07:43:54;;;;;;;5.97;1.17;;;;;;;19.65;42.41;100102.25;5121715;27;20171;-92
2022/10/21 07:46:21;;;;;;;2.10;0.90;;;;;;;19.74;42.33;100098.88;5104438;28;20186;-91
2022/10/21 07:48:49;;;;;;;2.97;0.90;;;;;;;19.70;42.77;100108.06;5098003;28;20174;-91
2022/10/21 07:51:19;;;;;;;4.70;1.40;;;;;;;19.46;42.88;100102.75;5115904;28;20274;-92
2022/10/21 07:53:45;;;;;;;2.50;1.00;;;;;;;19.41;43.18;100105.75;5097708;28;20254;-91
2022/10/21 07:56:15;;;;;;;2.80;1.07;;;;;;;19.54;43.84;100098.56;5097782;28;20284;-92
2022/10/21 07:58:42;;;;;;;5.97;1.30;;;;;;;19.64;43.88;100096.06;5097862;28;20193;-92
2022/10/21 08:01:10;;;;;;;6.70;1.27;;;;;;;19.67;43.49;100103.81;5115643;28;20171;-92
2022/10/21 08:03:36;;;;;;;4.10;1.50;;;;;;;19.66;43.50;100102.09;5115677;28;20171;-91
2022/10/21 08:06:02;;;;;;;3.27;1.20;;;;;;;19.75;42.89;100101.44;5097760;28;20168;-92
2022/10/21 08:08:30;;;;;;;3.10;1.47;;;;;;;19.81;42.64;100100.97;5115745;28;20172;-92
2022/10/21 08:10:56;;;;;;;3.60;1.43;;;;;;;19.92;41.86;100093.03;5097568;28;20187;-92
2022/10/21 08:13:23;;;;;;;4.87;1.47;;;;;;;19.69;41.72;100093.91;5097414;28;20236;-92
2022/10/21 08:15:52;;;;;;;3.10;1.13;;;;;;;19.56;41.37;100095.78;5115326;28;20199;-92
2022/10/21 08:18:19;;;;;;;4.83;1.30;;;;;;;19.72;41.85;100101.66;5115517;28;20176;-92
2022/10/21 08:20:46;;;;;;;4.23;1.30;;;;;;;19.90;41.79;100099.41;5115198;28;20239;-90
2022/10/21 08:23:15;;;;;;;3.07;1.40;;;;;;;19.86;41.33;100103.28;5107962;27;20179;-92
2022/10/21 08:25:57;;;;;;;2.60;1.30;;;;;;;20.08;40.30;100104.19;5111219;27;20246;-91
2022/10/21 08:28:25;;;;;;;2.17;0.77;;;;;;;20.03;40.99;100105.50;5121285;27;20195;-91
2022/10/21 08:30:52;;;;;;;2.77;1.10;;;;;;;20.23;40.22;100097.72;5116320;27;20182;-91
2022/10/21 08:33:18;;;;;;;2.07;1.03;;;;;;;20.33;40.83;100097.03;5120237;27;20171;-91
2022/10/21 08:35:44;;;;;;;4.33;1.40;;;;;;;20.44;39.45;100097.06;5128854;27;20684;-91
2022/10/21 08:38:11;;;;;;;3.83;1.20;;;;;;;20.40;40.08;100093.78;5124940;27;20207;-91
2022/10/21 08:40:46;;;;;;;2.37;1.10;;;;;;;20.70;39.65;100087.88;5121790;27;20175;-91
2022/10/21 08:43:45;;;;;;;2.50;1.13;;;;;;;20.76;39.44;100084.69;5126604;27;20183;-91
2022/10/21 08:46:18;;;;;;;4.60;1.00;;;;;;;20.84;40.04;100083.13;5079263;27;20186;-90
2022/10/21 08:49:00;;;;;;;2.80;1.30;;;;;;;20.87;39.37;100079.34;5128570;27;20163;-90
2022/10/21 08:51:39;;;;;;;4.53;1.43;;;;;;;20.98;38.73;100078.50;5111595;28;20226;-90
2022/10/21 08:54:22;;;;;;;5.13;1.30;;;;;;;20.64;38.52;100083.00;5114473;28;20171;-90
2022/10/21 08:56:54;;;;;;;3.83;1.47;;;;;;;21.13;38.73;100069.28;5123721;27;20211;-91
2022/10/21 08:59:22;;;;;;;4.37;1.23;;;;;;;21.41;38.36;100066.91;5114673;28;20164;-91
2022/10/21 09:02:35;;;;;;;4.73;1.47;;;;;;;21.52;38.40;100060.69;5096485;28;20214;-91
2022/10/21 09:05:38;;;;;;;5.40;1.43;;;;;;;21.57;36.98;100057.63;5114405;28;20171;-91
2022/10/21 09:08:31;;;;;;;3.00;1.37;;;;;;;21.81;36.70;100066.25;5114749;28;20197;-91
2022/10/21 09:11:27;;;;;;;2.83;1.43;;;;;;;21.84;36.34;100066.00;5096686;28;20182;-91
2022/10/21 09:14:14;;;;;;;4.53;1.47;;;;;;;21.51;36.56;100066.16;5114459;28;20156;-92
2022/10/21 09:17:20;;;;;;;2.67;1.17;;;;;;;21.59;36.38;100061.03;5122967;27;20225;-91
2022/10/21 09:20:33;;;;;;;5.50;1.27;;;;;;;21.60;35.81;100065.38;5123928;27;20158;-91
2022/10/21 09:23:29;;;;;;;1.73;0.80;;;;;;;21.88;34.99;100064.81;5092967;27;20464;-91
2022/10/21 09:26:07;;;;;;;4.30;1.20;;;;;;;21.78;35.40;100058.50;5155592;27;20161;-91
2022/10/21 09:28:35;;;;;;;2.10;1.00;;;;;;;21.86;35.19;100056.06;5141315;27;20167;-92
2022/10/21 09:31:02;;;;;;;2.20;1.13;;;;;;;21.68;35.95;100053.09;5134497;27;20181;-91
2022/10/21 09:33:35;;;;;;;2.60;1.20;;;;;;;21.55;35.99;100052.44;5134346;27;20254;-91
2022/10/21 09:36:09;;;;;;;3.63;1.33;;;;;;;21.94;36.61;100048.25;5134675;27;20274;-92
2022/10/21 09:38:46;;;;;;;2.43;1.23;;;;;;;22.26;35.99;100048.16;5116369;27;20163;-92
2022/10/21 09:41:25;;;;;;;5.50;1.07;;;;;;;22.09;34.93;100049.63;5134941;27;20255;-90
2022/10/21 09:43:50;;;;;;;3.70;1.30;;;;;;;21.90;35.55;100052.19;5134098;27;20163;-91
2022/10/21 09:46:18;;;;;;;4.37;1.27;;;;;;;22.18;34.87;100040.81;5134257;27;20174;-92
2022/10/21 09:48:49;;;;;;;6.20;1.47;;;;;;;22.43;34.07;100034.22;5116333;27;20183;-91
2022/10/21 09:51:28;;;;;;;4.77;1.40;;;;;;;22.76;33.83;100020.59;5116282;27;20279;-92
2022/10/21 09:54:15;;;;;;;6.47;1.27;;;;;;;22.92;34.04;100020.06;5116049;27;20166;-91
2022/10/21 09:57:00;;;;;;;1.43;0.70;;;;;;;22.79;33.40;100024.81;5134217;27;20236;-91
2022/10/21 09:59:27;;;;;;;4.30;0.90;;;;;;;22.64;33.28;100022.50;5132509;27;20167;-93
2022/10/21 10:01:54;;;;;;;2.43;0.93;;;;;;;22.55;33.91;100022.44;5115277;28;20646;-92
2022/10/21 10:04:32;;;;;;;5.00;1.57;;;;;;;22.94;33.84;100002.03;5115904;28;20615;-91
2022/10/21 10:07:02;;;;;;;3.37;1.40;;;;;;;22.86;34.26;100013.44;5134370;27;20162;-92
2022/10/21 10:09:33;;;;;;;4.13;1.27;;;;;;;22.60;33.14;100021.06;5134385;28;20217;-92
2022/10/21 10:12:16;;;;;;;4.30;0.87;;;;;;;22.56;33.17;100006.25;5115909;28;20171;-91
2022/10/21 10:14:44;;;;;;;4.37;1.33;;;;;;;22.59;33.22;100011.34;5116670;28;20199;-91
2022/10/21 10:17:30;;;;;;;3.03;1.10;;;;;;;22.75;32.80;99999.31;5134474;28;20604;-91
2022/10/21 10:20:17;;;;;;;3.10;1.03;;;;;;;23.02;32.91;100003.06;5115760;28;20177;-91
2022/10/21 10:22:59;;;;;;;4.40;1.20;;;;;;;22.96;32.99;99997.41;5134162;28;20167;-90
2022/10/21 10:25:30;;;;;;;3.67;1.37;;;;;;;23.09;32.21;99997.97;5134197;28;20242;-91
2022/10/21 10:27:59;;;;;;;2.93;1.30;;;;;;;23.15;31.89;99995.59;5116318;28;20170;-91
2022/10/21 10:30:29;;;;;;;5.70;1.70;;;;;;;23.57;31.66;99985.50;5133784;28;20175;-90
2022/10/21 10:32:55;;;;;;;2.77;1.47;;;;;;;23.96;31.62;99982.75;5133621;28;20512;-91
2022/10/21 10:35:28;;;;;;;4.50;1.37;;;;;;;24.11;30.97;99981.34;5132384;28;20203;-91
2022/10/21 10:37:57;;;;;;;5.70;2.20;;;;;;;23.97;31.69;99971.06;5132800;28;20235;-91
2022/10/21 10:40:27;;;;;;;3.87;1.20;;;;;;;24.19;31.13;99974.25;5132710;28;20163;-90
2022/10/21 10:43:06;;;;;;;3.50;1.33;;;;;;;24.55;30.79;99967.19;5132449;28;20152;-91
2022/10/21 10:45:32;;;;;;;2.50;1.10;;;;;;;24.27;30.88;99962.78;5132456;28;20549;-91
2022/10/21 10:48:02;;;;;;;2.27;1.00;;;;;;;24.52;30.78;99961.28;5132603;28;20643;-91
2022/10/21 10:50:37;;;;;;;2.43;0.73;;;;;;;24.56;30.58;99958.13;5133896;28;20151;-91
2022/10/21 10:53:20;;;;;;;1.70;0.80;;;;;;;24.69;29.59;99947.91;5133521;28;20181;-91
2022/10/21 10:55:48;;;;;;;6.77;1.53;;;;;;;24.43;30.55;99952.28;5137598;27;20605;-91
2022/10/21 10:58:15;;;;;;;8.20;1.53;;;;;;;24.37;30.58;99947.53;5137506;27;20537;-91
2022/10/21 11:00:45;;;;;;;7.17;1.47;;;;;;;24.77;30.23;99942.63;5119565;27;20584;-90
2022/10/21 11:03:15;;;;;;;3.47;1.50;;;;;;;24.92;30.01;99943.00;5137375;27;20626;-91
2022/10/21 11:05:49;;;;;;;3.13;1.57;;;;;;;24.82;29.96;99948.41;5137636;27;20242;-91
2022/10/21 11:08:24;;;;;;;3.57;1.47;;;;;;;24.98;29.91;99940.53;5137888;27;20163;-91
2022/10/21 11:10:55;;;;;;;4.70;1.07;;;;;;;24.86;29.96;99936.41;5137537;27;20234;-91
2022/10/21 11:13:22;;;;;;;4.77;1.60;;;;;;;24.58;29.69;99945.41;5137539;27;20198;-92
2022/10/21 11:16:10;;;;;;;3.00;1.30;;;;;;;24.56;30.17;99942.06;5137305;27;20207;-92
2022/10/21 11:18:49;;;;;;;2.33;1.03;;;;;;;24.80;29.54;99934.31;5137370;27;20596;-91
2022/10/21 11:21:33;;;;;;;2.90;1.33;;;;;;;24.77;29.53;99934.59;5118957;27;20347;-91
2022/10/21 11:24:33;;;;;;;4.73;1.93;;;;;;;24.79;29.31;99927.25;5137215;27;20171;-91
2022/10/21 11:27:10;;;;;;;2.97;1.30;;;;;;;25.32;29.10;99915.69;5136335;27;20262;-91
2022/10/21 11:30:00;;;;;;;3.87;1.57;;;;;;;25.70;28.58;99917.19;5118811;27;20170;-91
2022/10/21 11:32:40;;;;;;;4.27;1.37;;;;;;;25.88;27.96;99918.81;5136818;27;20168;-91
2022/10/21 11:35:28;;;;;;;2.93;1.20;;;;;;;25.59;28.48;99913.75;5137293;27;20186;-91
2022/10/21 11:38:05;;;;;;;3.03;1.63;;;;;;;25.71;28.32;99917.00;5118695;27;20613;-92
2022/10/21 11:40:31;;;;;;;6.77;1.33;;;;;;;24.96;29.00;99914.88;5136961;27;20170;-91
2022/10/21 11:43:08;;;;;;;4.17;1.10;;;;;;;24.99;29.17;99911.88;5136856;27;20167;-91
2022/10/21 11:45:44;;;;;;;5.47;1.77;;;;;;;25.13;28.40;99907.81;5136970;27;20162;-91